Time;durP1;ratioP1;P1;durP2;ratioP2;P2;SDS_P1;SDS_P2;PMS_P1;PMS_P2;Temp;Humidity;BMP_temperature;BMP_pressure;BME280_temperature;BME280_humidity;BME280_pressure;Samples;Min_cycle;Max_cycle;Signal;HPM_P1;HPM_P2
2022/08/04 00:00:11;;;;;;;7.90;7.03;;;;;;;19.53;56.43;100395.34;2101968;84;30429;-58
2022/08/04 00:03:23;;;;;;;9.60;7.10;;;;;;;19.51;56.48;100393.77;2101564;84;27626;-59
2022/08/04 00:06:42;;;;;;;12.30;7.35;;;;;;;19.52;56.82;100388.70;2101884;84;29840;-60
2022/08/04 00:09:54;;;;;;;11.35;7.40;;;;;;;19.52;56.57;100390.06;2101341;84;31872;-59
2022/08/04 00:12:57;;;;;;;9.03;7.22;;;;;;;19.52;56.63;100392.77;2101620;84;33831;-58
2022/08/04 00:16:06;;;;;;;8.58;7.37;;;;;;;19.49;56.52;100391.20;2076199;84;30625;-59
2022/08/04 00:19:18;;;;;;;10.82;7.40;;;;;;;19.46;56.64;100391.45;2102088;84;27663;-59
2022/08/04 00:22:22;;;;;;;13.93;8.50;;;;;;;19.45;56.68;100388.37;2101923;84;28709;-58
2022/08/04 00:25:24;;;;;;;8.58;7.78;;;;;;;19.45;56.75;100384.30;2078452;84;31880;-60
2022/08/04 00:28:30;;;;;;;6.95;6.08;;;;;;;19.44;56.98;100388.84;2102328;84;34278;-63
2022/08/04 00:31:31;;;;;;;8.85;7.85;;;;;;;19.42;57.26;100390.86;2102090;84;29400;-62
2022/08/04 00:34:34;;;;;;;8.53;7.62;;;;;;;19.42;57.03;100394.06;2078561;84;27713;-60
2022/08/04 00:37:37;;;;;;;11.15;8.03;;;;;;;19.41;57.29;100391.85;2102359;84;28875;-61
2022/08/04 00:40:56;;;;;;;12.45;8.20;;;;;;;19.41;57.25;100392.33;2102483;84;31928;-62
2022/08/04 00:44:23;;;;;;;9.73;8.53;;;;;;;19.42;57.43;100392.70;2102388;84;32962;-63
2022/08/04 00:47:58;;;;;;;9.80;8.63;;;;;;;19.39;57.29;100391.12;2102479;84;29717;-62
2022/08/04 00:51:10;;;;;;;;;;;;;;;19.36;57.66;100394.09;2105131;84;27707;-61
2022/08/04 00:54:35;;;;;;;9.58;8.45;;;;;;;19.30;57.69;100389.69;2101041;84;28577;-63
2022/08/04 00:57:51;;;;;;;11.35;9.48;;;;;;;19.21;57.84;100386.74;2100055;84;31403;-63
2022/08/04 01:01:06;;;;;;;10.68;9.58;;;;;;;19.15;57.96;100387.77;2102062;84;32951;-63
2022/08/04 01:04:38;;;;;;;11.20;9.30;;;;;;;19.08;58.15;100392.38;2102141;84;29314;-61
2022/08/04 01:08:25;;;;;;;10.30;9.23;;;;;;;19.04;58.31;100393.61;2101067;84;27731;-63
2022/08/04 01:11:50;;;;;;;12.10;9.55;;;;;;;18.97;58.41;100394.62;2102013;84;28471;-63
2022/08/04 01:15:07;;;;;;;12.93;10.05;;;;;;;18.90;58.82;100391.16;2102075;84;31039;-63
2022/08/04 01:18:14;;;;;;;10.85;9.85;;;;;;;18.84;58.90;100395.26;2101886;84;32978;-62
2022/08/04 01:21:53;;;;;;;11.65;10.45;;;;;;;18.82;59.21;100396.72;2101248;84;30083;-64
2022/08/04 01:25:30;;;;;;;11.50;9.50;;;;;;;18.80;59.13;100402.77;2101730;84;27726;-62
2022/08/04 01:29:05;;;;;;;12.70;10.55;;;;;;;18.77;59.37;100398.98;2066421;86;29539;-59
2022/08/04 01:32:08;;;;;;;15.32;10.50;;;;;;;18.75;59.61;100405.50;2067218;85;31075;-59
2022/08/04 01:35:26;;;;;;;11.88;9.33;;;;;;;18.71;59.47;100406.26;2065151;85;32965;-59
2022/08/04 01:38:36;;;;;;;10.88;9.48;;;;;;;18.68;59.65;100408.74;2067057;86;28508;-62
2022/08/04 01:41:37;;;;;;;13.08;10.78;;;;;;;18.67;59.82;100404.30;2043614;86;27729;-60
2022/08/04 01:44:40;;;;;;;10.75;9.75;;;;;;;18.65;59.77;100398.61;2066854;86;28694;-63
2022/08/04 01:47:52;;;;;;;14.38;10.88;;;;;;;18.64;59.96;100400.95;2067072;86;31889;-62
2022/08/04 01:51:03;;;;;;;12.30;10.45;;;;;;;18.65;60.09;100399.97;2067213;85;32968;-58
2022/08/04 01:54:05;;;;;;;11.38;9.93;;;;;;;18.64;60.02;100400.95;2067109;85;29516;-59
2022/08/04 01:57:06;;;;;;;12.15;10.80;;;;;;;18.60;60.19;100398.16;2067519;85;28231;-60
2022/08/04 02:00:10;;;;;;;13.43;10.23;;;;;;;18.57;60.31;100401.95;2067320;86;29685;-61
2022/08/04 02:03:13;;;;;;;10.55;9.30;;;;;;;18.53;60.42;100394.57;2067221;86;31037;-60
2022/08/04 02:06:35;;;;;;;10.38;9.38;;;;;;;18.49;60.58;100389.53;2067048;85;34149;-60
2022/08/04 02:09:58;;;;;;;15.40;10.82;;;;;;;18.48;60.60;100389.16;2067319;86;29478;-58
2022/08/04 02:13:27;;;;;;;12.80;10.15;;;;;;;18.48;60.60;100385.09;2067171;86;27689;-59
2022/08/04 02:16:49;;;;;;;11.73;10.63;;;;;;;18.48;60.72;100390.52;2067235;85;29078;-58
2022/08/04 02:20:17;;;;;;;13.72;10.15;;;;;;;18.48;60.68;100387.30;2067062;86;31082;-58
2022/08/04 02:23:33;;;;;;;11.10;9.18;;;;;;;18.47;60.85;100386.92;2097791;84;33501;-58
2022/08/04 02:26:35;;;;;;;11.15;10.00;;;;;;;18.45;60.82;100387.53;2100923;84;29427;-61
2022/08/04 02:29:42;;;;;;;13.30;10.08;;;;;;;18.43;61.08;100388.19;2105995;84;27563;-57
2022/08/04 02:32:44;;;;;;;11.35;10.13;;;;;;;18.39;61.08;100381.27;2105101;84;28955;-58
2022/08/04 02:35:46;;;;;;;12.50;10.05;;;;;;;18.35;61.25;100379.80;2105337;84;31655;-58
2022/08/04 02:39:00;;;;;;;14.70;10.48;;;;;;;18.31;61.19;100384.61;2105634;84;32737;-58
2022/08/04 02:42:04;;;;;;;11.30;10.10;;;;;;;18.28;61.25;100368.58;2105259;84;30538;-58
2022/08/04 02:45:07;;;;;;;12.43;9.93;;;;;;;18.25;61.67;100373.41;2105652;84;27674;-62
2022/08/04 02:48:09;;;;;;;11.50;10.10;;;;;;;18.20;61.71;100367.00;2105813;84;28664;-58
2022/08/04 02:51:14;;;;;;;15.23;10.08;;;;;;;18.17;61.75;100365.38;2105684;84;31029;-58
2022/08/04 02:54:18;;;;;;;13.35;10.28;;;;;;;18.14;61.89;100360.20;2105594;84;32990;-58
2022/08/04 02:57:24;;;;;;;8.73;7.78;;;;;;;18.11;61.98;100361.83;2105914;84;29343;-58
2022/08/04 03:00:25;;;;;;;10.40;8.88;;;;;;;18.10;62.40;100369.59;2081710;84;27711;-59
2022/08/04 03:03:48;;;;;;;14.73;11.12;;;;;;;18.14;62.65;100364.27;2105667;84;29063;-62
2022/08/04 03:07:17;;;;;;;12.23;10.80;;;;;;;18.16;62.29;100371.79;2105731;84;30811;-63
2022/08/04 03:10:46;;;;;;;14.23;11.08;;;;;;;18.14;62.24;100366.98;2105953;84;32915;-64
2022/08/04 03:14:22;;;;;;;18.57;11.70;;;;;;;18.12;62.42;100373.52;2105798;84;29710;-64
2022/08/04 03:17:58;;;;;;;14.65;11.40;;;;;;;18.08;62.50;100381.05;2105921;84;27609;-61
2022/08/04 03:21:22;;;;;;;11.22;10.20;;;;;;;18.03;62.43;100376.48;2103193;84;27879;-65
2022/08/04 03:24:48;;;;;;;12.90;11.20;;;;;;;17.99;62.56;100384.48;2103342;84;31404;-65
2022/08/04 03:28:10;;;;;;;12.23;11.03;;;;;;;17.94;62.83;100379.91;2101657;84;33435;-59
2022/08/04 03:31:20;;;;;;;14.63;11.35;;;;;;;17.88;62.93;100379.87;2102104;84;29501;-60
2022/08/04 03:35:06;;;;;;;15.70;11.95;;;;;;;17.84;63.19;100377.91;2102226;84;27706;-58
2022/08/04 03:38:54;;;;;;;16.75;12.25;;;;;;;17.81;63.40;100385.42;2101790;84;29140;-58
2022/08/04 03:42:19;;;;;;;16.02;12.35;;;;;;;17.76;63.69;100385.28;2101849;84;31452;-57
2022/08/04 03:45:56;;;;;;;12.93;11.60;;;;;;;17.74;63.61;100391.31;2102109;84;32888;-59
2022/08/04 03:49:39;;;;;;;13.68;12.03;;;;;;;17.75;63.72;100395.75;2101088;84;28807;-59
2022/08/04 03:53:21;;;;;;;15.10;11.45;;;;;;;17.75;64.01;100394.91;2101996;84;27722;-58
2022/08/04 03:56:46;;;;;;;12.78;11.20;;;;;;;17.75;64.18;100397.61;2102093;84;29949;-57
2022/08/04 04:00:16;;;;;;;15.20;11.78;;;;;;;17.74;64.31;100394.02;2102294;84;31073;-57
2022/08/04 04:03:36;;;;;;;12.70;11.40;;;;;;;17.75;64.44;100393.55;2102205;84;33035;-58
2022/08/04 04:07:16;;;;;;;15.65;11.53;;;;;;;17.77;64.64;100397.85;2102489;84;29334;-60
2022/08/04 04:10:35;;;;;;;17.27;12.73;;;;;;;17.79;64.73;100392.81;2102137;84;27651;-62
2022/08/04 04:14:16;;;;;;;13.95;12.40;;;;;;;17.83;64.83;100385.66;2102121;84;29082;-64
2022/08/04 04:17:46;;;;;;;22.17;13.25;;;;;;;17.86;64.78;100388.64;2102512;84;30959;-62
2022/08/04 04:21:11;;;;;;;14.15;12.68;;;;;;;17.90;64.88;100388.27;2102695;84;32985;-63
2022/08/04 04:24:36;;;;;;;14.60;13.18;;;;;;;17.98;64.87;100389.05;2098219;84;29702;-61
2022/08/04 04:27:52;;;;;;;15.72;13.58;;;;;;;18.05;64.71;100386.20;2101763;84;27611;-61
2022/08/04 04:31:32;;;;;;;18.27;14.18;;;;;;;18.15;64.76;100390.91;2101836;84;28463;-63
2022/08/04 04:34:54;;;;;;;15.60;13.78;;;;;;;18.24;64.71;100385.23;2101729;84;31248;-62
2022/08/04 04:38:20;;;;;;;19.10;13.62;;;;;;;18.33;64.61;100389.42;2101038;84;33377;-63
2022/08/04 04:41:30;;;;;;;18.62;14.00;;;;;;;18.44;64.60;100387.20;2101747;84;29820;-62
2022/08/04 04:45:04;;;;;;;20.32;13.15;;;;;;;18.55;64.54;100390.36;2101838;84;28236;-64
2022/08/04 04:48:45;;;;;;;17.40;15.43;;;;;;;18.68;64.59;100389.75;2101862;84;28683;-60
2022/08/04 04:52:10;;;;;;;15.72;13.50;;;;;;;18.82;64.39;100389.94;2101749;84;31487;-62
2022/08/04 04:55:28;;;;;;;21.27;14.38;;;;;;;19.01;64.18;100387.59;2102050;84;32754;-62
2022/08/04 04:58:32;;;;;;;14.53;12.73;;;;;;;19.41;64.34;100398.65;2101966;84;29256;-64
2022/08/04 05:02:06;;;;;;;14.95;12.05;;;;;;;20.45;64.10;100398.28;2101935;84;27769;-63
2022/08/04 05:05:48;;;;;;;13.35;11.88;;;;;;;21.55;63.18;100392.34;2081032;85;29066;-63
2022/08/04 05:09:29;;;;;;;17.77;12.13;;;;;;;22.75;61.69;100390.78;2081076;85;32172;-62
2022/08/04 05:13:14;;;;;;;13.65;11.93;;;;;;;23.76;59.77;100393.42;2081090;85;32723;-62
2022/08/04 05:16:38;;;;;;;15.15;10.32;;;;;;;24.53;58.54;100392.17;2081666;85;33639;-61
2022/08/04 05:20:00;;;;;;;15.48;10.08;;;;;;;25.13;57.26;100392.19;2081279;85;27718;-62
2022/08/04 05:23:17;;;;;;;14.23;10.23;;;;;;;25.52;55.71;100392.05;2080904;85;29850;-63
2022/08/04 05:26:23;;;;;;;13.72;10.75;;;;;;;25.84;55.14;100390.30;2070834;85;30243;-64
2022/08/04 05:29:36;;;;;;;13.55;11.30;;;;;;;26.02;53.96;100392.83;2070383;86;33103;-64
2022/08/04 05:32:46;;;;;;;11.75;10.55;;;;;;;26.11;53.40;100391.82;2070646;86;29314;-59
2022/08/04 05:35:55;;;;;;;11.95;10.65;;;;;;;26.13;52.69;100392.51;2034851;87;27787;-61
2022/08/04 05:38:58;;;;;;;12.05;9.83;;;;;;;26.19;52.59;100386.82;2035251;87;29227;-64
2022/08/04 05:42:00;;;;;;;12.10;9.58;;;;;;;26.29;51.34;100392.11;2025749;87;32386;-62
2022/08/04 05:45:03;;;;;;;10.48;9.38;;;;;;;26.30;50.90;100380.94;2018584;88;34108;-64
2022/08/04 05:48:07;;;;;;;11.00;9.38;;;;;;;26.35;50.94;100385.89;2017917;88;30199;-64
2022/08/04 05:51:09;;;;;;;12.40;8.90;;;;;;;26.50;50.75;100384.10;2018372;88;28644;-62
2022/08/04 05:54:12;;;;;;;10.15;8.55;;;;;;;26.67;50.33;100386.27;2018768;88;28742;-63
2022/08/04 05:57:14;;;;;;;9.95;9.05;;;;;;;26.82;50.00;100382.24;2053242;86;31750;-63
2022/08/04 06:00:17;;;;;;;9.60;8.43;;;;;;;26.99;49.04;100384.89;1996640;88;33353;-64
2022/08/04 06:03:20;;;;;;;9.58;8.60;;;;;;;27.10;48.82;100393.24;2053595;86;29395;-63
2022/08/04 06:06:22;;;;;;;12.00;8.18;;;;;;;27.25;48.34;100385.91;2035945;87;27707;-63
2022/08/04 06:09:23;;;;;;;8.78;7.95;;;;;;;27.42;47.82;100385.27;2035805;87;29079;-63
2022/08/04 06:12:33;;;;;;;9.28;8.05;;;;;;;27.66;47.90;100390.23;2035393;87;31945;-63
2022/08/04 06:15:38;;;;;;;13.35;7.83;;;;;;;28.02;46.48;100396.95;2035761;87;32983;-64
2022/08/04 06:18:40;;;;;;;10.65;8.10;;;;;;;28.38;46.90;100393.44;2035711;87;30109;-62
2022/08/04 06:21:44;;;;;;;10.78;8.33;;;;;;;28.80;45.65;100397.91;2036861;87;27741;-63
2022/08/04 06:24:48;;;;;;;10.55;7.50;;;;;;;29.26;45.35;100404.99;2046401;84;28842;-61
2022/08/04 06:27:51;;;;;;;8.85;8.00;;;;;;;29.80;45.05;100399.98;2081144;85;31075;-63
2022/08/04 06:30:54;;;;;;;8.20;7.37;;;;;;;30.36;44.06;100391.34;2094015;85;33004;-60
2022/08/04 06:33:56;;;;;;;9.15;7.17;;;;;;;30.95;43.44;100399.55;2094455;85;29331;-62
2022/08/04 06:36:57;;;;;;;10.55;8.00;;;;;;;31.63;43.16;100401.38;2094344;84;27669;-61
2022/08/04 06:40:01;;;;;;;10.23;7.58;;;;;;;32.28;42.65;100402.08;2106500;84;29299;-63
2022/08/04 06:43:06;;;;;;;9.35;6.67;;;;;;;32.91;41.31;100400.27;2106476;84;31033;-62
2022/08/04 06:46:08;;;;;;;8.58;7.75;;;;;;;33.34;39.99;100400.94;2106175;84;34173;-63
2022/08/04 06:49:11;;;;;;;8.25;6.80;;;;;;;33.68;39.35;100408.50;2106591;84;29506;-64
2022/08/04 06:52:16;;;;;;;9.48;6.80;;;;;;;34.02;38.98;100399.34;2102875;84;27743;-61
2022/08/04 06:55:17;;;;;;;8.70;7.42;;;;;;;34.47;38.23;100398.23;2078519;85;29572;-62
2022/08/04 06:58:20;;;;;;;10.55;7.40;;;;;;;34.91;37.75;100390.27;2078630;85;32216;-58
2022/08/04 07:01:22;;;;;;;9.20;7.40;;;;;;;35.13;37.25;100394.26;2078711;85;33978;-60
2022/08/04 07:04:24;;;;;;;10.10;7.67;;;;;;;35.21;35.65;100389.42;2101631;84;30100;-59
2022/08/04 07:07:25;;;;;;;9.05;6.97;;;;;;;35.39;36.09;100391.30;2101669;84;28206;-58
2022/08/04 07:10:28;;;;;;;11.70;7.72;;;;;;;35.56;35.24;100392.84;2101302;84;29154;-58
2022/08/04 07:13:31;;;;;;;7.92;7.08;;;;;;;35.79;34.76;100396.20;2100857;84;32071;-59
2022/08/04 07:16:33;;;;;;;7.33;6.57;;;;;;;36.07;34.63;100393.27;2101432;84;33849;-60
2022/08/04 07:19:36;;;;;;;9.03;6.45;;;;;;;36.34;34.39;100392.73;2101533;84;29698;-58
2022/08/04 07:22:37;;;;;;;9.05;6.55;;;;;;;36.51;33.58;100394.78;2105994;84;27773;-58
2022/08/04 07:25:39;;;;;;;8.33;6.75;;;;;;;36.73;33.62;100396.34;2083069;84;28694;-58
2022/08/04 07:28:41;;;;;;;5.70;5.20;;;;;;;36.96;33.00;100396.81;2105489;84;32266;-59
2022/08/04 07:31:44;;;;;;;6.45;5.50;;;;;;;37.16;32.99;100395.51;2105498;84;34164;-59
2022/08/04 07:34:50;;;;;;;9.83;8.80;;;;;;;37.28;31.32;100392.09;2105750;84;30544;-59
2022/08/04 07:37:51;;;;;;;7.95;6.72;;;;;;;37.30;31.69;100394.65;2105605;84;27686;-59
2022/08/04 07:40:53;;;;;;;8.43;6.03;;;;;;;37.44;29.91;100390.45;2105526;84;29842;-60
2022/08/04 07:43:54;;;;;;;6.67;6.03;;;;;;;37.33;31.21;100387.13;2105568;84;31610;-58
2022/08/04 07:46:56;;;;;;;8.63;4.60;;;;;;;37.30;29.86;100384.30;2105491;84;32768;-60
2022/08/04 07:49:58;;;;;;;7.28;5.35;;;;;;;37.30;30.50;100384.30;2104725;84;30530;-61
2022/08/04 07:53:01;;;;;;;4.58;3.40;;;;;;;37.52;30.54;100391.41;2105627;84;44005;-61
2022/08/04 07:56:04;;;;;;;9.23;7.42;;;;;;;37.54;30.19;100385.59;2105285;84;29190;-59
2022/08/04 07:59:06;;;;;;;7.22;6.33;;;;;;;37.71;29.89;100386.95;2105711;84;30273;-60
2022/08/04 08:02:08;;;;;;;8.68;7.08;;;;;;;37.61;29.85;100380.65;2105189;84;33658;-60
2022/08/04 08:05:12;;;;;;;6.85;4.95;;;;;;;37.70;30.04;100379.67;2105407;84;29430;-60
2022/08/04 08:08:14;;;;;;;7.25;6.12;;;;;;;37.87;30.22;100384.39;2105468;84;27714;-60
2022/08/04 08:11:16;;;;;;;6.35;4.72;;;;;;;37.99;29.20;100385.16;2105254;84;29666;-59
2022/08/04 08:14:19;;;;;;;3.87;3.60;;;;;;;37.83;29.19;100379.87;2105002;84;31886;-59
2022/08/04 08:17:21;;;;;;;5.90;5.40;;;;;;;37.90;29.71;100380.55;2034204;87;34133;-59
2022/08/04 08:20:22;;;;;;;6.87;6.28;;;;;;;38.09;29.45;100375.53;2008063;87;30438;-60
2022/08/04 08:23:25;;;;;;;7.30;3.90;;;;;;;38.11;29.20;100377.52;1999687;89;27758;-60
2022/08/04 08:26:27;;;;;;;6.50;5.83;;;;;;;38.04;28.63;100372.66;1999518;89;28644;-60
2022/08/04 08:29:29;;;;;;;6.83;6.00;;;;;;;38.00;28.26;100372.86;1999627;89;32309;-59
2022/08/04 08:32:31;;;;;;;5.90;5.28;;;;;;;37.57;28.00;100378.63;1999496;89;33345;-59
2022/08/04 08:36:03;;;;;;;3.80;3.52;;;;;;;37.16;28.15;100377.35;1999357;89;30183;-60
2022/08/04 08:39:25;;;;;;;3.25;2.02;;;;;;;37.20;28.83;100372.40;1998667;89;27735;-60
2022/08/04 08:43:25;;;;;;;4.20;3.90;;;;;;;37.42;28.83;100381.47;1999333;89;29906;-60
2022/08/04 08:47:00;;;;;;;5.70;5.17;;;;;;;37.63;28.50;100381.81;1999131;89;27885;-58
2022/08/04 08:50:19;;;;;;;4.55;2.87;;;;;;;37.43;28.69;100382.30;2000156;88;34309;-62
2022/08/04 08:53:44;;;;;;;6.40;4.50;;;;;;;37.43;28.71;100381.77;2020838;88;29335;-59
2022/08/04 08:57:00;;;;;;;6.20;5.20;;;;;;;37.52;28.22;100384.42;2020111;88;27767;-59
2022/08/04 09:00:10;;;;;;;6.72;4.37;;;;;;;37.36;27.99;100373.52;2029168;87;28735;-59
2022/08/04 09:03:52;;;;;;;5.03;4.47;;;;;;;36.91;27.02;100367.36;1979514;89;31937;-59
2022/08/04 09:07:00;;;;;;;2.95;2.72;;;;;;;36.60;27.31;100373.74;2007585;88;33364;-59
2022/08/04 09:10:18;;;;;;;5.72;4.65;;;;;;;36.35;28.22;100372.94;1981252;89;30147;-58
2022/08/04 09:13:33;;;;;;;3.72;3.45;;;;;;;36.22;28.11;100370.98;1985808;88;27656;-58
2022/08/04 09:16:46;;;;;;;5.20;4.75;;;;;;;36.17;28.35;100368.38;2051166;86;29657;-60
2022/08/04 09:20:05;;;;;;;7.00;5.55;;;;;;;35.89;28.20;100370.50;2017066;88;31435;-60
2022/08/04 09:23:54;;;;;;;1.87;1.77;;;;;;;35.68;28.55;100365.83;2051205;86;34138;-59
2022/08/04 09:27:00;;;;;;;3.22;3.00;;;;;;;35.63;29.03;100361.55;2046729;86;29686;-60
2022/08/04 09:30:06;;;;;;;8.08;4.97;;;;;;;35.64;29.29;100361.85;2078688;85;27655;-60
2022/08/04 09:33:25;;;;;;;6.28;5.28;;;;;;;35.62;28.69;100358.98;2078235;85;30062;-60
2022/08/04 09:36:55;;;;;;;5.80;4.67;;;;;;;35.36;28.98;100359.17;2089941;84;31918;-59
2022/08/04 09:40:05;;;;;;;4.35;3.95;;;;;;;35.04;28.78;100354.45;2105581;84;33013;-60
2022/08/04 09:43:48;;;;;;;6.55;5.03;;;;;;;34.65;29.44;100364.52;2105310;84;29320;-61
2022/08/04 09:46:58;;;;;;;6.22;5.72;;;;;;;34.54;30.12;100348.91;2079101;85;27722;-61
2022/08/04 09:50:23;;;;;;;3.33;3.10;;;;;;;34.45;29.88;100354.49;2079267;85;29041;-60
2022/08/04 09:53:51;;;;;;;5.58;4.90;;;;;;;34.34;30.33;100351.92;2081673;85;32428;-60
2022/08/04 09:57:40;;;;;;;5.92;5.37;;;;;;;34.20;29.52;100346.22;2082108;85;33018;-59
2022/08/04 10:00:48;;;;;;;5.58;5.10;;;;;;;33.87;29.67;100348.80;2081912;85;29356;-60
2022/08/04 10:03:55;;;;;;;2.87;2.67;;;;;;;33.48;29.68;100360.91;2081707;85;27703;-60
2022/08/04 10:07:15;;;;;;;5.15;4.75;;;;;;;33.07;30.07;100352.56;2081917;85;28637;-62
2022/08/04 10:10:40;;;;;;;2.95;2.70;;;;;;;32.83;30.82;100345.34;2081708;85;31388;-63
2022/08/04 10:14:01;;;;;;;6.17;4.55;;;;;;;32.71;31.42;100343.77;2080928;85;33432;-59
2022/08/04 10:17:31;;;;;;;5.17;4.67;;;;;;;32.43;30.86;100340.82;2086546;85;28942;-59
2022/08/04 10:20:54;;;;;;;3.77;3.47;;;;;;;32.18;30.33;100339.84;2087777;85;27732;-60
2022/08/04 10:24:19;;;;;;;6.87;5.17;;;;;;;31.92;31.16;100337.45;2088079;85;29629;-60
2022/08/04 10:27:29;;;;;;;4.85;4.35;;;;;;;31.84;30.94;100330.77;2077397;85;31207;-58
2022/08/04 10:30:35;;;;;;;4.20;3.75;;;;;;;31.80;31.89;100337.25;2075826;85;33439;-60
2022/08/04 10:33:45;;;;;;;4.80;3.87;;;;;;;31.65;31.91;100330.55;2041571;87;29331;-58
2022/08/04 10:37:15;;;;;;;1.98;1.87;;;;;;;31.56;31.73;100328.53;2002213;88;27824;-60
2022/08/04 10:40:39;;;;;;;6.28;5.78;;;;;;;31.53;32.69;100323.42;2041124;87;29687;-59
2022/08/04 10:43:55;;;;;;;6.33;4.90;;;;;;;31.48;32.34;100332.37;2007372;88;31095;-59
2022/08/04 10:47:01;;;;;;;6.42;5.80;;;;;;;31.39;32.48;100330.03;2041887;87;33437;-60
2022/08/04 10:50:05;;;;;;;5.30;3.15;;;;;;;31.29;32.24;100323.54;2041178;87;30462;-60
2022/08/04 10:53:13;;;;;;;5.85;5.33;;;;;;;31.25;32.88;100323.64;2041970;87;27736;-60
2022/08/04 10:56:20;;;;;;;3.40;3.15;;;;;;;31.18;32.20;100321.73;2041828;87;28659;-58
2022/08/04 10:59:49;;;;;;;3.55;3.25;;;;;;;31.12;33.48;100315.63;2041720;87;30444;-59
2022/08/04 11:03:28;;;;;;;1.98;1.87;;;;;;;31.07;33.71;100314.88;2041676;87;32898;-60
2022/08/04 11:06:30;;;;;;;4.67;4.37;;;;;;;30.97;33.64;100300.59;2041549;87;29361;-59
2022/08/04 11:09:33;;;;;;;1.80;1.70;;;;;;;30.98;34.24;100309.22;2041842;87;27660;-60
2022/08/04 11:12:35;;;;;;;2.35;2.25;;;;;;;31.00;34.21;100300.72;2041695;87;29498;-59
2022/08/04 11:15:51;;;;;;;8.53;4.75;;;;;;;30.96;34.43;100289.20;2041632;87;31209;-58
2022/08/04 11:19:04;;;;;;;5.28;3.75;;;;;;;30.99;34.06;100296.25;2041769;87;33785;-58
2022/08/04 11:22:20;;;;;;;3.98;3.67;;;;;;;30.89;34.21;100296.12;2031621;87;30157;-58
2022/08/04 11:25:45;;;;;;;7.53;5.42;;;;;;;30.86;34.19;100298.45;2016204;87;27741;-60
2022/08/04 11:29:30;;;;;;;2.45;2.30;;;;;;;30.80;34.29;100296.01;2040939;87;28754;-57
2022/08/04 11:32:55;;;;;;;2.52;2.35;;;;;;;30.75;34.39;100296.64;2041833;87;31437;-59
2022/08/04 11:36:27;;;;;;;4.47;4.08;;;;;;;30.69;34.96;100293.33;2050073;85;32305;-60
2022/08/04 11:39:39;;;;;;;4.22;3.72;;;;;;;30.60;34.58;100300.12;2078094;85;29495;-58
2022/08/04 11:42:49;;;;;;;7.47;5.55;;;;;;;30.54;34.85;100296.22;2040064;87;27620;-58
2022/08/04 11:45:59;;;;;;;4.15;2.85;;;;;;;30.49;34.64;100288.23;2075406;85;29021;-58
2022/08/04 11:49:06;;;;;;;7.35;5.90;;;;;;;30.47;34.88;100287.91;2077928;85;31713;-59
2022/08/04 11:52:09;;;;;;;5.10;4.60;;;;;;;30.40;34.79;100285.67;2077932;85;32972;-60
2022/08/04 11:55:15;;;;;;;2.92;2.52;;;;;;;30.43;34.94;100289.41;2077821;85;30299;-58
2022/08/04 11:58:16;;;;;;;4.85;4.45;;;;;;;30.45;35.12;100283.11;2078263;85;27568;-58
2022/08/04 12:01:57;;;;;;;1.62;1.52;;;;;;;30.42;35.25;100282.17;2077866;85;30156;-57
2022/08/04 12:05:03;;;;;;;2.98;2.55;;;;;;;30.40;35.61;100279.28;2077474;85;27736;-59
2022/08/04 12:09:01;;;;;;;2.95;2.40;;;;;;;30.37;36.04;100284.70;2078126;85;32964;-59
2022/08/04 12:12:14;;;;;;;2.67;2.50;;;;;;;30.30;36.19;100277.77;2078157;85;29766;-59
2022/08/04 12:15:30;;;;;;;5.80;5.30;;;;;;;30.29;36.29;100281.59;2077660;85;27649;-57
2022/08/04 12:18:43;;;;;;;2.75;2.55;;;;;;;30.27;36.13;100275.96;2038813;87;29071;-59
2022/08/04 12:21:51;;;;;;;6.33;5.33;;;;;;;30.20;35.99;100274.52;2040442;87;31407;-57
2022/08/04 12:25:10;;;;;;;5.30;4.90;;;;;;;30.18;36.08;100271.66;2040284;87;32991;-58
2022/08/04 12:28:17;;;;;;;5.45;4.95;;;;;;;30.12;36.31;100274.17;2040084;85;30150;-57
2022/08/04 12:31:24;;;;;;;7.30;5.65;;;;;;;30.12;36.17;100277.48;2040527;87;27671;-58
2022/08/04 12:34:36;;;;;;;5.65;3.83;;;;;;;30.12;36.25;100266.44;2040211;87;28167;-58
2022/08/04 12:37:49;;;;;;;6.00;5.42;;;;;;;30.08;36.45;100272.91;2039906;87;31456;-57
2022/08/04 12:40:54;;;;;;;6.28;5.67;;;;;;;30.06;36.51;100272.26;2040464;87;32989;-59
2022/08/04 12:44:03;;;;;;;6.70;4.37;;;;;;;30.11;36.24;100276.64;2054252;85;29355;-59
2022/08/04 12:47:11;;;;;;;3.67;3.47;;;;;;;30.17;36.22;100274.96;2078240;85;27700;-59
2022/08/04 12:50:14;;;;;;;4.75;4.42;;;;;;;30.15;36.13;100266.86;2078243;85;28689;-59
2022/08/04 12:53:16;;;;;;;3.92;3.62;;;;;;;30.24;33.97;100265.31;2078184;85;32323;-58
2022/08/04 12:56:27;;;;;;;6.75;4.15;;;;;;;30.31;34.78;100259.27;2078258;85;33673;-58
2022/08/04 12:59:28;;;;;;;5.17;4.08;;;;;;;30.31;35.47;100261.52;2078650;85;29441;-60
2022/08/04 13:02:35;;;;;;;4.50;4.10;;;;;;;30.26;34.36;100251.60;2078743;85;27698;-59
2022/08/04 13:05:42;;;;;;;3.47;3.17;;;;;;;30.23;34.15;100252.02;2078269;85;27756;-62
2022/08/04 13:08:45;;;;;;;9.60;3.33;;;;;;;30.24;34.07;100246.80;2078425;85;31039;-62
2022/08/04 13:11:55;;;;;;;3.15;2.85;;;;;;;30.22;34.29;100246.70;2078202;85;34176;-64
2022/08/04 13:15:01;;;;;;;5.35;3.50;;;;;;;30.18;34.16;100246.27;2077592;84;30061;-60
2022/08/04 13:18:07;;;;;;;5.42;2.72;;;;;;;30.24;33.13;100245.97;2078260;85;28056;-61
2022/08/04 13:21:20;;;;;;;1.80;1.70;;;;;;;30.29;33.35;100237.37;2078548;84;28816;-63
2022/08/04 13:24:23;;;;;;;2.20;1.82;;;;;;;30.11;33.57;100236.58;2078526;85;31134;-61
2022/08/04 13:27:25;;;;;;;5.58;3.47;;;;;;;29.99;33.94;100233.55;2040503;84;32960;-67
2022/08/04 13:30:27;;;;;;;6.15;3.90;;;;;;;29.96;33.90;100228.95;2040988;87;29744;-61
2022/08/04 13:33:33;;;;;;;2.55;2.35;;;;;;;29.96;33.32;100226.19;2040846;87;27680;-61
2022/08/04 13:36:35;;;;;;;3.10;2.67;;;;;;;29.98;33.14;100226.33;2073657;85;28669;-60
2022/08/04 13:39:38;;;;;;;2.98;2.40;;;;;;;29.89;32.84;100231.66;2077841;85;31523;-62
2022/08/04 13:42:41;;;;;;;3.52;3.22;;;;;;;29.77;32.62;100226.40;2054274;85;34413;-61
2022/08/04 13:45:42;;;;;;;4.40;4.00;;;;;;;29.72;32.34;100224.26;2039848;86;29388;-59
2022/08/04 13:48:44;;;;;;;3.05;2.72;;;;;;;29.74;32.11;100226.80;2044839;86;27599;-59
2022/08/04 13:52:01;;;;;;;4.35;3.25;;;;;;;29.77;31.93;100222.25;2044565;87;28682;-61
2022/08/04 13:55:04;;;;;;;3.55;3.35;;;;;;;29.65;31.77;100217.33;2078345;85;31007;-59
2022/08/04 13:58:19;;;;;;;1.80;1.70;;;;;;;29.57;31.50;100214.72;2078331;85;32870;-58
2022/08/04 14:01:28;;;;;;;2.05;1.95;;;;;;;29.43;31.86;100212.94;2078071;85;30332;-58
2022/08/04 14:04:33;;;;;;;3.25;3.02;;;;;;;29.31;31.88;100210.72;2078174;85;27752;-60
2022/08/04 14:07:43;;;;;;;4.58;3.83;;;;;;;29.25;31.49;100210.14;2078284;85;29093;-61
2022/08/04 14:10:55;;;;;;;3.10;2.90;;;;;;;29.14;31.96;100207.94;2078186;85;31830;-59
2022/08/04 14:13:57;;;;;;;3.75;3.42;;;;;;;29.14;32.05;100203.80;2077752;85;33656;-61
2022/08/04 14:17:05;;;;;;;6.35;4.40;;;;;;;29.10;32.44;100197.84;2078367;85;30220;-60
2022/08/04 14:20:08;;;;;;;3.58;2.50;;;;;;;29.09;32.37;100188.70;2078455;85;27680;-58
2022/08/04 14:23:12;;;;;;;4.50;3.05;;;;;;;29.24;32.55;100191.36;2077884;85;29618;-59
2022/08/04 14:26:34;;;;;;;7.40;5.50;;;;;;;29.20;32.75;100198.88;2078134;85;32218;-59
2022/08/04 14:29:37;;;;;;;5.58;4.50;;;;;;;29.19;32.59;100197.17;2083888;85;33065;-58
2022/08/04 14:33:01;;;;;;;3.70;2.58;;;;;;;29.35;32.76;100200.15;2084014;85;29420;-60
2022/08/04 14:36:04;;;;;;;4.12;3.55;;;;;;;29.47;32.80;100197.69;2084294;85;27711;-62
2022/08/04 14:39:07;;;;;;;5.22;3.92;;;;;;;29.48;32.98;100194.70;2084249;85;29650;-60
2022/08/04 14:42:08;;;;;;;6.00;5.50;;;;;;;29.46;33.07;100189.08;2083867;84;32318;-59
2022/08/04 14:45:10;;;;;;;4.50;4.10;;;;;;;29.45;32.99;100187.38;2084201;85;33773;-60
2022/08/04 14:48:14;;;;;;;5.87;5.28;;;;;;;29.44;33.35;100185.16;2084363;85;29169;-58
2022/08/04 14:51:16;;;;;;;4.92;4.45;;;;;;;29.45;33.44;100194.27;2084588;85;27723;-58